createdAt,value
2018-11-14T00:02:00.940Z,21.07
2018-11-14T00:04:31.113Z,25.03
2018-11-14T00:07:01.079Z,26.83
2018-11-14T00:09:30.936Z,22.83
2018-11-14T00:12:01.463Z,15.60
2018-11-14T00:14:32.175Z,21.47
2018-11-14T00:17:01.969Z,23.83
2018-11-14T00:19:32.338Z,21.60
2018-11-14T00:22:02.434Z,26.13
2018-11-14T00:24:32.492Z,22.27
2018-11-14T00:27:03.378Z,22.23
2018-11-14T00:29:34.023Z,23.10
2018-11-14T00:32:04.759Z,20.20
2018-11-14T00:34:34.844Z,24.17
2018-11-14T00:37:04.595Z,25.33
2018-11-14T00:39:34.721Z,24.90
2018-11-14T00:42:05.152Z,24.13
2018-11-14T00:44:34.962Z,21.60
2018-11-14T00:47:05.442Z,20.37
2018-11-14T00:49:35.814Z,32.30
2018-11-14T00:52:16.262Z,23.77
2018-11-14T00:54:46.850Z,22.00
2018-11-14T00:57:17.888Z,27.80
2018-11-14T00:59:47.960Z,24.43
2018-11-14T01:02:18.829Z,23.07
2018-11-14T01:04:48.641Z,22.87
2018-11-14T01:07:18.503Z,30.47
2018-11-14T01:09:48.821Z,31.10
2018-11-14T01:12:20.221Z,23.43
2018-11-14T01:14:50.269Z,27.77
2018-11-14T01:17:20.320Z,35.23
2018-11-14T01:19:50.322Z,24.60
2018-11-14T01:22:21.091Z,24.80
2018-11-14T01:24:51.206Z,24.33
2018-11-14T01:27:21.187Z,23.50
2018-11-14T01:29:51.791Z,23.83
2018-11-14T01:32:21.587Z,22.73
2018-11-14T01:34:51.562Z,30.93
2018-11-14T01:37:21.621Z,26.33
2018-11-14T01:39:51.558Z,26.90
2018-11-14T01:42:22.611Z,26.53
2018-11-14T01:45:04.997Z,25.47
2018-11-14T01:47:35.202Z,26.90
2018-11-14T01:50:05.982Z,32.13
2018-11-14T01:52:35.790Z,24.90
2018-11-14T01:55:06.595Z,28.47
2018-11-14T01:57:36.589Z,28.30
2018-11-14T02:00:10.335Z,29.47
2018-11-14T02:02:41.427Z,28.33
2018-11-14T02:05:11.893Z,35.63
2018-11-14T02:07:42.304Z,25.43
2018-11-14T02:10:13.644Z,34.27
2018-11-14T02:12:44.164Z,22.60
2018-11-14T02:15:16.444Z,23.33
2018-11-14T02:17:46.480Z,28.03
2018-11-14T02:20:16.553Z,22.77
2018-11-14T02:22:47.091Z,23.90
2018-11-14T02:25:17.571Z,27.30
2018-11-14T02:27:47.505Z,23.57
2018-11-14T02:30:20.583Z,23.70
2018-11-14T02:32:51.808Z,27.60
2018-11-14T02:35:21.963Z,22.97
2018-11-14T02:37:52.216Z,26.90
2018-11-14T02:40:22.981Z,31.20
2018-11-14T02:42:53.169Z,24.27
2018-11-14T02:45:23.635Z,24.53
2018-11-14T02:47:53.648Z,25.50
2018-11-14T02:50:23.549Z,29.17
2018-11-14T02:52:53.965Z,31.37
2018-11-14T02:55:24.123Z,35.47
2018-11-14T02:57:55.679Z,29.67
2018-11-14T03:00:25.679Z,32.47
2018-11-14T03:02:56.140Z,29.17
2018-11-14T03:05:26.183Z,27.73
2018-11-14T03:07:56.164Z,24.93
2018-11-14T03:10:26.181Z,27.40
2018-11-14T03:12:56.891Z,27.70
2018-11-14T03:15:26.788Z,28.23
2018-11-14T03:17:56.748Z,32.33
2018-11-14T03:20:26.645Z,28.30
2018-11-14T03:22:56.568Z,28.13
2018-11-14T03:25:26.891Z,27.80
2018-11-14T03:27:57.338Z,25.27
2018-11-14T03:30:27.308Z,29.60
2018-11-14T03:32:57.081Z,27.70
2018-11-14T03:35:31.125Z,27.57
2018-11-14T03:38:01.279Z,25.10
2018-11-14T03:40:31.480Z,23.53
2018-11-14T03:43:01.959Z,28.27
2018-11-14T03:45:31.906Z,23.60
2018-11-14T03:48:01.988Z,23.33
2018-11-14T03:50:31.687Z,21.30
2018-11-14T03:53:01.599Z,26.30
2018-11-14T03:55:31.866Z,21.00
2018-11-14T03:58:01.747Z,16.53
2018-11-14T04:00:32.461Z,24.20
2018-11-14T04:03:02.602Z,19.97
2018-11-14T04:05:33.242Z,14.40
2018-11-14T04:08:03.947Z,19.30
2018-11-14T04:10:33.680Z,21.03
2018-11-14T04:13:03.564Z,19.47
2018-11-14T04:15:34.516Z,21.53
2018-11-14T04:18:04.471Z,23.20
2018-11-14T04:20:34.632Z,18.60
2018-11-14T04:23:04.868Z,22.80
2018-11-14T04:25:34.770Z,21.30
2018-11-14T04:28:04.796Z,22.53
2018-11-14T04:30:34.896Z,17.37
2018-11-14T04:33:05.370Z,18.63
2018-11-14T04:35:36.168Z,19.60
2018-11-14T04:38:06.070Z,22.37
2018-11-14T04:40:36.367Z,20.47
2018-11-14T04:43:06.332Z,31.40
2018-11-14T04:45:36.797Z,21.27
2018-11-14T04:48:07.251Z,28.70
2018-11-14T04:50:37.040Z,28.10
2018-11-14T04:53:06.972Z,28.17
2018-11-14T04:55:37.045Z,39.43
2018-11-14T04:58:06.819Z,31.57
2018-11-14T05:00:37.255Z,33.97
2018-11-14T05:03:16.408Z,43.00
2018-11-14T05:05:58.506Z,42.73
2018-11-14T05:08:30.291Z,38.43
2018-11-14T05:11:00.159Z,44.37
2018-11-14T05:13:30.524Z,39.70
2018-11-14T05:16:00.709Z,36.10
2018-11-14T05:18:31.223Z,37.20
2018-11-14T05:21:01.555Z,36.50
2018-11-14T05:23:31.864Z,33.27
2018-11-14T05:26:02.037Z,36.83
2018-11-14T05:28:32.578Z,40.00
2018-11-14T05:31:04.185Z,37.70
2018-11-14T05:33:34.072Z,37.20
2018-11-14T05:36:04.455Z,29.60
2018-11-14T05:38:34.712Z,31.93
2018-11-14T05:41:04.556Z,33.67
2018-11-14T05:43:34.971Z,31.73
2018-11-14T05:46:05.616Z,35.30
2018-11-14T05:48:35.976Z,33.27
2018-11-14T05:51:06.263Z,31.80
2018-11-14T05:53:37.440Z,27.43
2018-11-14T05:56:07.623Z,28.80
2018-11-14T05:58:37.649Z,27.33
2018-11-14T06:01:08.068Z,29.50
2018-11-14T06:03:40.074Z,30.40
2018-11-14T06:06:10.666Z,35.60
2018-11-14T06:08:42.212Z,29.60
2018-11-14T06:11:12.659Z,23.70
2018-11-14T06:13:43.451Z,32.57
2018-11-14T06:16:13.476Z,28.33
2018-11-14T06:18:44.970Z,24.60
2018-11-14T06:21:16.047Z,26.10
2018-11-14T06:23:46.265Z,23.20
2018-11-14T06:26:17.414Z,24.67
2018-11-14T06:28:47.643Z,26.20
2018-11-14T06:31:24.935Z,22.97
2018-11-14T06:34:02.806Z,27.03
2018-11-14T06:36:33.096Z,26.93
2018-11-14T06:39:04.001Z,23.90
2018-11-14T06:41:35.060Z,22.30
2018-11-14T06:44:05.519Z,30.33
2018-11-14T06:46:36.124Z,21.70
2018-11-14T06:49:06.576Z,22.53
2018-11-14T06:51:37.638Z,23.43
2018-11-14T06:54:07.556Z,21.30
2018-11-14T06:56:37.719Z,19.00
2018-11-14T06:59:07.879Z,18.20
2018-11-14T07:01:38.697Z,24.17
2018-11-14T07:04:09.312Z,22.73
2018-11-14T07:06:40.069Z,18.50
2018-11-14T07:09:12.353Z,21.90
2018-11-14T07:11:42.593Z,18.07
2018-11-14T07:14:13.573Z,21.00
2018-11-14T07:16:45.619Z,16.77
2018-11-14T07:19:16.784Z,20.37
2018-11-14T07:21:46.916Z,26.57
2018-11-14T07:24:17.979Z,33.10
2018-11-14T07:26:48.659Z,19.00
2018-11-14T07:29:18.470Z,17.43
2018-11-14T07:31:50.128Z,26.73
2018-11-14T07:34:23.136Z,18.33
2018-11-14T07:36:53.140Z,21.83
2018-11-14T07:39:23.557Z,19.57
2018-11-14T07:41:53.502Z,19.67
2018-11-14T07:44:23.991Z,20.90
2018-11-14T07:46:56.271Z,25.50
2018-11-14T07:49:27.378Z,27.40
2018-11-14T07:51:57.835Z,22.10
2018-11-14T07:54:28.030Z,20.70
2018-11-14T07:56:58.076Z,25.70
2018-11-14T07:59:28.895Z,22.93
2018-11-14T08:01:59.016Z,28.23
2018-11-14T08:04:29.781Z,32.80
2018-11-14T08:07:00.699Z,36.27
2018-11-14T08:09:30.879Z,43.50
2018-11-14T08:12:01.161Z,54.07
2018-11-14T08:14:31.968Z,57.80
2018-11-14T08:17:04.240Z,52.70
2018-11-14T08:19:34.464Z,40.70
2018-11-14T08:22:04.599Z,26.37
2018-11-14T08:24:35.344Z,29.30
2018-11-14T08:27:05.499Z,26.30
2018-11-14T08:29:36.583Z,16.90
2018-11-14T08:32:08.057Z,21.33
2018-11-14T08:34:39.959Z,24.53
2018-11-14T08:37:10.652Z,18.10
2018-11-14T08:39:41.024Z,17.70
2018-11-14T08:42:11.362Z,15.53
2018-11-14T08:44:42.392Z,26.00
2018-11-14T08:47:13.025Z,13.80
2018-11-14T08:49:43.431Z,13.97
2018-11-14T08:52:13.218Z,11.13
2018-11-14T08:54:44.195Z,11.90
2018-11-14T08:57:14.945Z,13.60
2018-11-14T08:59:45.151Z,12.23
2018-11-14T09:02:17.000Z,13.37
2018-11-14T09:04:48.583Z,11.30
2018-11-14T09:07:20.609Z,15.00
2018-11-14T09:09:50.713Z,11.70
2018-11-14T09:12:21.768Z,12.40
2018-11-14T09:14:53.761Z,10.20
2018-11-14T09:17:24.151Z,15.20
2018-11-14T09:19:55.169Z,12.33
2018-11-14T09:22:25.042Z,14.63
2018-11-14T09:24:55.646Z,11.50
2018-11-14T09:27:28.968Z,9.73
2018-11-14T09:30:00.324Z,18.60
2018-11-14T09:32:30.095Z,10.30
2018-11-14T09:35:00.235Z,9.20
2018-11-14T09:37:30.244Z,10.73
2018-11-14T09:40:01.759Z,8.90
2018-11-14T09:42:33.921Z,11.17
2018-11-14T09:45:03.996Z,11.20
2018-11-14T09:47:34.042Z,13.63
2018-11-14T09:50:08.918Z,11.87
2018-11-14T09:52:40.239Z,13.17
2018-11-14T09:55:11.811Z,13.20
2018-11-14T09:57:42.742Z,9.43
2018-11-14T10:00:15.053Z,14.30
2018-11-14T10:02:47.178Z,13.50
2018-11-14T10:05:19.108Z,12.37
2018-11-14T10:07:49.589Z,15.37
2018-11-14T10:12:49.537Z,16.43
2018-11-14T10:15:23.375Z,13.60
2018-11-14T10:17:54.256Z,10.47
2018-11-14T10:20:25.580Z,17.40
2018-11-14T10:22:58.431Z,16.80
2018-11-14T10:25:28.656Z,16.33
2018-11-14T10:27:59.372Z,14.13
2018-11-14T10:30:30.110Z,18.13
2018-11-14T10:33:02.544Z,18.23
2018-11-14T10:35:33.434Z,12.87
2018-11-14T10:38:04.386Z,14.77
2018-11-14T10:40:34.467Z,9.87
2018-11-14T10:43:05.193Z,15.57
2018-11-14T10:45:36.763Z,15.03
2018-11-14T10:48:07.419Z,11.50
2018-11-14T10:50:37.445Z,13.17
2018-11-14T10:53:07.771Z,10.90
2018-11-14T10:55:40.683Z,12.67
2018-11-14T10:58:12.435Z,9.00
2018-11-14T11:00:53.401Z,13.87
2018-11-14T11:03:29.523Z,10.83
2018-11-14T11:06:07.068Z,12.73
2018-11-14T11:08:43.236Z,8.97
2018-11-14T11:11:18.751Z,17.93
2018-11-14T11:14:21.093Z,10.87
2018-11-14T11:16:58.271Z,12.27
2018-11-14T11:19:30.963Z,19.67
2018-11-14T11:22:03.079Z,9.47
2018-11-14T11:24:35.424Z,16.57
2018-11-14T11:27:08.115Z,9.97
2018-11-14T11:29:40.481Z,9.93
2018-11-14T11:32:10.857Z,8.17
2018-11-14T11:34:41.051Z,10.20
2018-11-14T11:37:10.947Z,8.67
2018-11-14T11:39:41.671Z,7.50
2018-11-14T11:42:12.596Z,8.37
2018-11-14T11:44:44.590Z,8.60
2018-11-14T11:47:15.120Z,6.30
2018-11-14T11:49:45.188Z,6.13
2018-11-14T11:52:15.782Z,8.00
2018-11-14T11:54:46.146Z,5.83
2018-11-14T11:57:16.944Z,11.00
2018-11-14T11:59:47.242Z,9.80
2018-11-14T12:02:18.453Z,9.83
2018-11-14T12:04:49.219Z,7.40
2018-11-14T12:07:20.210Z,9.97
2018-11-14T12:09:53.143Z,8.37
2018-11-14T12:12:23.537Z,8.73
2018-11-14T12:14:54.040Z,11.37
2018-11-14T12:17:25.279Z,6.07
2018-11-14T12:19:56.239Z,9.90
2018-11-14T12:22:26.767Z,6.53
2018-11-14T12:24:58.071Z,7.03
2018-11-14T12:27:28.141Z,7.10
2018-11-14T12:29:59.841Z,9.40
2018-11-14T12:32:32.040Z,6.70
2018-11-14T12:35:02.415Z,8.20
2018-11-14T12:37:33.650Z,3.77
2018-11-14T12:40:06.641Z,6.73
2018-11-14T12:42:36.438Z,10.10
2018-11-14T12:45:10.034Z,7.50
2018-11-14T12:47:40.271Z,7.73
2018-11-14T12:50:12.050Z,9.70
2018-11-14T12:52:42.302Z,9.23
2018-11-14T12:55:15.096Z,11.50
2018-11-14T12:57:47.272Z,7.90
2018-11-14T13:00:19.505Z,11.03
2018-11-14T13:02:50.484Z,10.27
2018-11-14T13:05:21.984Z,9.13
2018-11-14T13:07:52.247Z,12.57
2018-11-14T13:10:22.983Z,9.73
2018-11-14T13:12:53.925Z,11.53
2018-11-14T13:15:28.287Z,9.30
2018-11-14T13:18:00.663Z,7.37
2018-11-14T13:20:32.310Z,8.73
2018-11-14T13:23:08.306Z,10.97
2018-11-14T13:25:41.581Z,8.60
2018-11-14T13:28:18.489Z,5.00
2018-11-14T13:30:52.763Z,8.47
2018-11-14T13:33:27.633Z,7.43
2018-11-14T13:35:58.643Z,6.47
2018-11-14T13:38:28.835Z,6.93
2018-11-14T13:40:59.373Z,10.87
2018-11-14T13:43:32.765Z,5.80
2018-11-14T13:46:04.504Z,8.50
2018-11-14T13:48:35.441Z,7.13
2018-11-14T13:51:10.046Z,10.53
2018-11-14T13:53:42.361Z,13.80
2018-11-14T13:56:13.485Z,6.40
2018-11-14T13:58:44.934Z,9.67
2018-11-14T14:01:16.593Z,7.63
2018-11-14T14:03:47.101Z,4.53
2018-11-14T14:06:19.664Z,7.90
2018-11-14T14:08:51.055Z,5.40
2018-11-14T14:11:21.821Z,5.93
2018-11-14T14:13:58.129Z,9.00
2018-11-14T14:16:30.627Z,8.50
2018-11-14T14:19:00.908Z,8.63
2018-11-14T14:21:33.079Z,6.83
2018-11-14T14:24:03.808Z,4.30
2018-11-14T14:26:34.370Z,5.90
2018-11-14T14:29:04.598Z,7.73
2018-11-14T14:31:37.368Z,5.10
2018-11-14T14:34:08.411Z,7.37
2018-11-14T14:36:40.467Z,5.73
2018-11-14T14:39:12.295Z,7.43
2018-11-14T14:41:42.147Z,5.83
2018-11-14T14:44:13.594Z,10.80
2018-11-14T14:46:44.892Z,5.97
2018-11-14T14:49:15.685Z,6.60
2018-11-14T14:51:45.752Z,4.23
2018-11-14T14:54:16.916Z,3.47
2018-11-14T14:56:49.560Z,6.97
2018-11-14T14:59:20.674Z,5.03
2018-11-14T15:01:51.689Z,5.40
2018-11-14T15:04:22.984Z,4.77
2018-11-14T15:06:53.995Z,5.80
2018-11-14T15:09:36.882Z,4.70
2018-11-14T15:12:18.310Z,5.07
2018-11-14T15:14:49.576Z,5.73
2018-11-14T15:17:19.831Z,6.40
2018-11-14T15:19:56.994Z,5.87
2018-11-14T15:22:34.238Z,5.77
2018-11-14T15:25:05.698Z,6.30
2018-11-14T15:27:44.448Z,5.27
2018-11-14T15:30:17.915Z,12.10
2018-11-14T15:32:48.291Z,7.17
2018-11-14T15:35:18.329Z,5.83
2018-11-14T15:37:48.362Z,6.80
2018-11-14T15:40:22.200Z,10.80
2018-11-14T15:42:52.910Z,3.33
2018-11-14T15:45:27.200Z,5.10
2018-11-14T15:47:58.267Z,3.50
2018-11-14T15:50:30.007Z,4.80
2018-11-14T15:53:00.708Z,6.00
2018-11-14T15:55:31.348Z,3.70
2018-11-14T15:58:02.777Z,4.20
2018-11-14T16:00:33.675Z,4.13
2018-11-14T16:03:05.996Z,9.80
2018-11-14T16:05:36.817Z,9.40
2018-11-14T16:08:08.297Z,7.37
2018-11-14T16:10:39.422Z,5.47
2018-11-14T16:13:10.101Z,7.07
2018-11-14T16:15:40.885Z,4.63
2018-11-14T16:18:11.336Z,9.80
2018-11-14T16:20:42.432Z,8.37
2018-11-14T16:23:18.127Z,6.33
2018-11-14T16:25:48.363Z,6.63
2018-11-14T16:28:20.078Z,6.43
2018-11-14T16:30:51.428Z,5.40
2018-11-14T16:33:21.868Z,8.10
2018-11-14T16:35:52.779Z,4.50
2018-11-14T16:38:26.477Z,5.77
2018-11-14T16:40:56.799Z,5.37
2018-11-14T16:43:28.988Z,6.50
2018-11-14T16:46:01.133Z,6.30
2018-11-14T16:48:32.375Z,5.70
2018-11-14T16:51:03.240Z,8.00
2018-11-14T16:53:33.491Z,8.50
2018-11-14T16:56:03.922Z,9.37
2018-11-14T16:58:34.411Z,7.90
2018-11-14T17:01:04.626Z,9.37
2018-11-14T17:03:35.070Z,6.43
2018-11-14T17:06:05.144Z,6.97
2018-11-14T17:08:36.258Z,5.73
2018-11-14T17:11:07.417Z,6.80
2018-11-14T17:13:37.667Z,7.93
2018-11-14T17:16:09.397Z,9.97
2018-11-14T17:18:41.640Z,9.53
2018-11-14T17:21:17.124Z,20.40
2018-11-14T17:23:48.144Z,19.23
2018-11-14T17:26:19.069Z,11.73
2018-11-14T17:28:50.620Z,12.97
2018-11-14T17:31:22.071Z,12.50
2018-11-14T17:33:52.059Z,12.80
2018-11-14T17:36:22.507Z,9.97
2018-11-14T17:38:56.388Z,15.53
2018-11-14T17:41:29.666Z,11.00
2018-11-14T17:44:00.148Z,13.77
2018-11-14T17:46:32.435Z,16.73
2018-11-14T17:49:03.268Z,13.60
2018-11-14T17:51:33.966Z,14.00
2018-11-14T17:54:04.627Z,14.70
2018-11-14T17:56:35.831Z,15.80
2018-11-14T17:59:07.108Z,13.03
2018-11-14T18:01:37.562Z,14.50
2018-11-14T18:04:09.235Z,13.10
2018-11-14T18:06:43.419Z,14.20
2018-11-14T18:09:16.140Z,12.57
2018-11-14T18:11:48.180Z,10.90
2018-11-14T18:14:22.329Z,13.50
2018-11-14T18:16:53.479Z,15.50
2018-11-14T18:19:24.287Z,12.23
2018-11-14T18:21:57.044Z,12.83
2018-11-14T18:24:28.577Z,13.63
2018-11-14T18:27:02.598Z,10.23
2018-11-14T18:29:33.227Z,11.30
2018-11-14T18:32:03.968Z,13.13
2018-11-14T18:34:34.130Z,18.13
2018-11-14T18:37:06.402Z,18.10
2018-11-14T18:39:37.755Z,12.77
2018-11-14T18:42:08.800Z,9.93
2018-11-14T18:44:40.648Z,15.30
2018-11-14T18:47:11.955Z,14.80
2018-11-14T18:49:44.895Z,16.37
2018-11-14T18:52:17.310Z,13.47
2018-11-14T18:54:50.245Z,12.10
2018-11-14T18:57:23.225Z,13.87
2018-11-14T18:59:56.016Z,12.67
2018-11-14T19:02:29.496Z,11.37
2018-11-14T19:05:01.861Z,19.90
2018-11-14T19:07:33.304Z,11.13
2018-11-14T19:10:05.947Z,14.13
2018-11-14T19:12:40.411Z,13.60
2018-11-14T19:15:15.280Z,13.97
2018-11-14T19:17:49.811Z,13.53
2018-11-14T19:20:24.438Z,10.70
2018-11-14T19:22:58.162Z,14.73
2018-11-14T19:25:31.261Z,14.20
2018-11-14T19:28:01.673Z,13.00
2018-11-14T19:30:36.875Z,13.33
2018-11-14T19:33:09.946Z,15.20
2018-11-14T19:35:42.401Z,12.63
2018-11-14T19:38:15.940Z,14.10
2018-11-14T19:40:48.711Z,10.93
2018-11-14T19:43:21.456Z,16.40
2018-11-14T19:45:53.933Z,13.00
2018-11-14T19:48:25.075Z,9.70
2018-11-14T19:50:58.692Z,15.03
2018-11-14T19:53:28.926Z,14.33
2018-11-14T19:56:00.333Z,12.77
2018-11-14T19:58:32.478Z,14.53
2018-11-14T20:01:04.484Z,14.90
2018-11-14T20:03:35.525Z,14.47
2018-11-14T20:06:09.155Z,12.00
2018-11-14T20:08:42.035Z,12.50
2018-11-14T20:11:13.503Z,16.30
2018-11-14T20:13:45.436Z,11.47
2018-11-14T20:16:15.672Z,20.83
2018-11-14T20:18:47.325Z,13.70
2018-11-14T20:21:19.019Z,17.60
2018-11-14T20:23:49.654Z,13.90
2018-11-14T20:26:21.364Z,16.60
2018-11-14T20:28:51.764Z,13.57
2018-11-14T20:31:22.436Z,17.60
2018-11-14T20:33:56.544Z,13.53
2018-11-14T20:36:30.288Z,13.53
2018-11-14T20:39:06.062Z,21.23
2018-11-14T20:41:36.365Z,12.37
2018-11-14T20:44:07.309Z,13.77
2018-11-14T20:46:37.514Z,12.60
2018-11-14T20:49:10.372Z,14.13
2018-11-14T20:51:41.197Z,15.93
2018-11-14T20:54:11.466Z,27.57
2018-11-14T20:56:41.848Z,14.93
2018-11-14T20:59:12.732Z,11.53
2018-11-14T21:01:42.797Z,15.23
2018-11-14T21:04:15.863Z,14.53
2018-11-14T21:06:47.802Z,16.53
2018-11-14T21:09:19.228Z,13.70
2018-11-14T21:11:50.459Z,15.40
2018-11-14T21:14:22.887Z,18.20
2018-11-14T21:16:53.052Z,12.23
2018-11-14T21:19:23.815Z,17.80
2018-11-14T21:21:58.988Z,15.10
2018-11-14T21:24:29.320Z,18.60
2018-11-14T21:27:00.454Z,15.60
2018-11-14T21:29:30.895Z,13.70
2018-11-14T21:32:01.828Z,15.47
2018-11-14T21:34:32.618Z,17.30
2018-11-14T21:37:02.977Z,12.63
2018-11-14T21:39:33.293Z,19.27
2018-11-14T21:42:04.219Z,15.67
2018-11-14T21:44:34.937Z,19.10
2018-11-14T21:47:06.787Z,15.03
2018-11-14T21:49:37.324Z,13.00
2018-11-14T21:52:07.999Z,17.23
2018-11-14T21:54:39.522Z,14.30
2018-11-14T21:57:11.044Z,14.80
2018-11-14T21:59:42.099Z,18.10
2018-11-14T22:02:12.532Z,20.17
2018-11-14T22:04:43.548Z,15.30
2018-11-14T22:07:14.158Z,16.93
2018-11-14T22:09:44.498Z,12.43
2018-11-14T22:12:15.042Z,14.73
2018-11-14T22:14:45.299Z,14.83
2018-11-14T22:17:15.487Z,15.37
2018-11-14T22:19:45.996Z,19.77
2018-11-14T22:22:17.756Z,17.93
2018-11-14T22:24:49.123Z,15.50
2018-11-14T22:27:20.463Z,13.83
2018-11-14T22:29:51.004Z,15.63
2018-11-14T22:32:22.334Z,19.03
2018-11-14T22:34:53.203Z,17.03
2018-11-14T22:37:23.585Z,20.70
2018-11-14T22:39:53.919Z,17.90
2018-11-14T22:42:24.132Z,20.77
2018-11-14T22:44:54.514Z,20.57
2018-11-14T22:47:24.531Z,25.53
2018-11-14T22:49:56.975Z,30.20
2018-11-14T22:52:26.976Z,31.13
2018-11-14T22:54:58.032Z,26.97
2018-11-14T22:57:28.198Z,27.70
2018-11-14T22:59:59.820Z,25.93
2018-11-14T23:02:31.196Z,24.60
2018-11-14T23:05:03.688Z,21.90
2018-11-14T23:07:34.077Z,34.03
2018-11-14T23:10:06.768Z,34.23
2018-11-14T23:12:36.894Z,30.73
2018-11-14T23:15:08.837Z,25.27
2018-11-14T23:17:39.072Z,23.87
2018-11-14T23:20:12.468Z,23.53
2018-11-14T23:22:43.507Z,21.47
2018-11-14T23:25:14.699Z,20.10
2018-11-14T23:27:46.921Z,26.53
2018-11-14T23:30:18.300Z,22.23
2018-11-14T23:32:50.474Z,19.50
2018-11-14T23:35:25.841Z,24.03
2018-11-14T23:37:57.888Z,20.27
2018-11-14T23:40:28.104Z,22.47
2018-11-14T23:42:58.361Z,22.50
2018-11-14T23:45:29.365Z,17.33
2018-11-14T23:48:00.016Z,17.47
2018-11-14T23:50:32.177Z,15.33
2018-11-14T23:53:03.206Z,19.43
2018-11-14T23:55:33.456Z,18.60
2018-11-14T23:58:03.391Z,17.97
